createdAt,value
2022-09-23T00:00:46.354Z,100180.53
2022-09-23T00:03:14.118Z,100179.78
2022-09-23T00:05:41.072Z,100180.78
2022-09-23T00:08:11.072Z,100176.63
2022-09-23T00:10:39.638Z,100170.41
2022-09-23T00:13:07.060Z,100168.94
2022-09-23T00:15:39.059Z,100173.59
2022-09-23T00:18:06.140Z,100162.06
2022-09-23T00:20:34.761Z,100170.19
2022-09-23T00:23:02.589Z,100167.59
2022-09-23T00:25:29.585Z,100154.22
2022-09-23T00:27:57.290Z,100156.06
2022-09-23T00:30:24.507Z,100153.34
2022-09-23T00:32:51.515Z,100150.66
2022-09-23T00:35:19.038Z,100153.50
2022-09-23T00:37:46.023Z,100151.78
2022-09-23T00:40:13.053Z,100154.88
2022-09-23T00:42:48.310Z,100153.56
2022-09-23T00:45:17.053Z,100150.22
2022-09-23T00:47:56.175Z,100152.22
2022-09-23T00:50:40.164Z,100149.41
2022-09-23T00:53:09.940Z,100144.38
2022-09-23T00:55:45.745Z,100142.41
2022-09-23T00:58:17.188Z,100139.97
2022-09-23T01:00:44.365Z,100138.25
2022-09-23T01:03:11.341Z,100131.28
2022-09-23T01:05:38.700Z,100130.66
2022-09-23T01:08:08.925Z,100131.75
2022-09-23T01:11:07.988Z,100135.47
2022-09-23T01:13:53.611Z,100135.59
2022-09-23T01:16:26.984Z,100139.53
2022-09-23T01:18:56.791Z,100145.91
2022-09-23T01:21:37.153Z,100142.75
2022-09-23T01:24:31.184Z,100133.78
2022-09-23T01:27:10.220Z,100130.22
2022-09-23T01:30:06.497Z,100128.50
2022-09-23T01:32:46.280Z,100127.78
2022-09-23T01:35:25.395Z,100126.19
2022-09-23T01:38:17.200Z,100120.19
2022-09-23T01:40:51.780Z,100122.16
2022-09-23T01:43:32.386Z,100124.22
2022-09-23T01:46:02.675Z,100132.72
2022-09-23T01:48:35.711Z,100131.63
2022-09-23T01:51:15.281Z,100133.56
2022-09-23T01:54:03.171Z,100136.03
2022-09-23T01:56:35.616Z,100126.22
2022-09-23T01:59:19.453Z,100116.41
2022-09-23T02:01:55.176Z,100119.25
2022-09-23T02:04:29.694Z,100118.50
2022-09-23T02:07:03.148Z,100113.09
2022-09-23T02:09:37.400Z,100119.38
2022-09-23T02:12:13.626Z,100119.59
2022-09-23T02:14:49.163Z,100115.19
2022-09-23T02:17:28.845Z,100114.47
2022-09-23T02:20:02.432Z,100111.78
2022-09-23T02:23:01.365Z,100115.44
2022-09-23T02:25:55.131Z,100108.47
2022-09-23T02:28:32.717Z,100103.31
2022-09-23T02:31:38.223Z,100095.38
2022-09-23T02:34:20.593Z,100095.63
2022-09-23T02:37:02.762Z,100098.19
2022-09-23T02:39:39.786Z,100100.25
2022-09-23T02:42:13.718Z,100097.72
2022-09-23T02:44:40.738Z,100091.81
2022-09-23T02:47:08.118Z,100103.47
2022-09-23T02:49:35.106Z,100097.31
2022-09-23T02:52:05.145Z,100093.78
2022-09-23T02:54:33.573Z,100096.50
2022-09-23T02:57:04.386Z,100094.91
2022-09-23T02:59:32.553Z,100096.38
2022-09-23T03:02:11.888Z,100090.97
2022-09-23T03:04:47.040Z,100093.69
2022-09-23T03:07:50.005Z,100090.38
2022-09-23T03:10:35.633Z,100090.13
2022-09-23T03:13:15.911Z,100086.56
2022-09-23T03:15:53.017Z,100094.78
2022-09-23T03:18:44.574Z,100088.41
2022-09-23T03:21:15.256Z,100085.72
2022-09-23T03:23:44.550Z,100080.31
2022-09-23T03:26:23.133Z,100080.44
2022-09-23T03:28:51.170Z,100078.59
2022-09-23T03:31:18.405Z,100074.31
2022-09-23T03:33:50.535Z,100069.91
2022-09-23T03:36:23.607Z,100069.06
2022-09-23T03:38:54.549Z,100059.38
2022-09-23T03:41:36.542Z,100064.78
2022-09-23T03:44:03.771Z,100064.78
2022-09-23T03:46:30.664Z,100063.19
2022-09-23T03:49:08.269Z,100059.03
2022-09-23T03:51:35.221Z,100056.44
2022-09-23T03:54:02.245Z,100053.88
2022-09-23T03:56:32.164Z,100051.19
2022-09-23T03:58:59.221Z,100049.59
2022-09-23T04:01:26.333Z,100050.81
2022-09-23T04:03:53.365Z,100043.09
2022-09-23T04:06:20.708Z,100042.13
2022-09-23T04:08:47.771Z,100038.81
2022-09-23T04:11:14.913Z,100041.50
2022-09-23T04:13:41.919Z,100041.38
2022-09-23T04:16:08.919Z,100039.69
2022-09-23T04:18:36.140Z,100045.94
2022-09-23T04:21:03.321Z,100041.50
2022-09-23T04:23:30.308Z,100045.06
2022-09-23T04:25:57.314Z,100045.06
2022-09-23T04:28:24.349Z,100045.31
2022-09-23T04:30:51.355Z,100042.38
2022-09-23T04:33:18.351Z,100052.28
2022-09-23T04:35:50.467Z,100048.63
2022-09-23T04:38:18.410Z,100054.25
2022-09-23T04:40:45.414Z,100045.19
2022-09-23T04:43:13.647Z,100045.41
2022-09-23T04:45:40.704Z,100040.16
2022-09-23T04:48:07.720Z,100032.22
2022-09-23T04:50:34.979Z,100036.63
2022-09-23T04:53:01.969Z,100033.81
2022-09-23T04:55:29.311Z,100042.72
2022-09-23T04:57:56.691Z,100036.22
2022-09-23T05:00:24.995Z,100039.78
2022-09-23T05:02:51.969Z,100045.06
2022-09-23T05:05:19.127Z,100051.19
2022-09-23T05:07:46.486Z,100051.94
2022-09-23T05:10:13.939Z,100053.75
2022-09-23T05:12:41.799Z,100050.09
2022-09-23T05:15:09.267Z,100040.03
2022-09-23T05:17:36.419Z,100039.69
2022-09-23T05:20:04.292Z,100047.50
2022-09-23T05:22:31.433Z,100047.25
2022-09-23T05:24:58.479Z,100048.72
2022-09-23T05:27:25.441Z,100048.59
2022-09-23T05:29:52.412Z,100051.53
2022-09-23T05:32:19.581Z,100042.91
2022-09-23T05:34:46.647Z,100041.31
2022-09-23T05:37:13.797Z,100040.69
2022-09-23T05:39:40.831Z,100045.19
2022-09-23T05:42:07.886Z,100044.28
2022-09-23T05:44:35.128Z,100037.28
2022-09-23T05:47:02.232Z,100045.59
2022-09-23T05:49:48.257Z,100043.47
2022-09-23T05:52:16.262Z,100035.44
2022-09-23T05:54:43.345Z,100038.09
2022-09-23T05:57:10.330Z,100033.75
2022-09-23T05:59:37.361Z,100042.78
2022-09-23T06:02:04.643Z,100038.53
2022-09-23T06:04:31.664Z,100036.75
2022-09-23T06:07:03.649Z,100036.66
2022-09-23T06:09:34.225Z,100038.16
2022-09-23T06:12:04.422Z,100044.19
2022-09-23T06:14:31.423Z,100047.63
2022-09-23T06:16:58.378Z,100057.41
2022-09-23T06:19:25.344Z,100047.19
2022-09-23T06:21:52.334Z,100039.25
2022-09-23T06:24:22.962Z,100039.81
2022-09-23T06:26:51.883Z,100026.03
2022-09-23T06:29:18.881Z,100030.41
2022-09-23T06:31:45.844Z,100019.00
2022-09-23T06:34:14.385Z,100019.84
2022-09-23T06:36:45.037Z,100016.50
2022-09-23T06:39:14.408Z,100010.28
2022-09-23T06:41:41.631Z,100000.38
2022-09-23T06:44:13.646Z,99996.03
2022-09-23T06:46:40.876Z,99992.72
2022-09-23T06:49:07.905Z,99983.47
2022-09-23T06:51:34.934Z,99987.78
2022-09-23T06:54:01.970Z,99972.28
2022-09-23T06:56:29.033Z,99965.09
2022-09-23T06:58:57.048Z,99971.22
2022-09-23T07:01:24.014Z,99966.75
2022-09-23T07:03:50.997Z,99969.94
2022-09-23T07:06:17.961Z,99966.06
2022-09-23T07:08:46.123Z,99961.75
2022-09-23T07:11:14.169Z,99964.78
2022-09-23T07:13:42.081Z,99958.00
2022-09-23T07:16:10.733Z,99953.25
2022-09-23T07:18:37.953Z,99954.97
2022-09-23T07:21:07.841Z,99952.41
2022-09-23T07:23:34.958Z,99955.84
2022-09-23T07:26:01.955Z,99959.09
2022-09-23T07:28:28.904Z,99953.66
2022-09-23T07:31:00.297Z,99944.78
2022-09-23T07:33:32.420Z,99945.13
2022-09-23T07:36:04.395Z,99946.31
2022-09-23T07:38:31.416Z,99955.66
2022-09-23T07:41:06.537Z,99951.88
2022-09-23T07:43:33.560Z,99947.09
2022-09-23T07:46:03.744Z,99947.06
2022-09-23T07:48:34.302Z,99950.25
2022-09-23T07:51:13.333Z,99946.81
2022-09-23T07:53:40.319Z,99951.88
2022-09-23T07:56:07.302Z,99953.31
2022-09-23T07:58:35.217Z,99949.44
2022-09-23T08:01:09.153Z,99958.75
2022-09-23T08:03:37.059Z,99960.97
2022-09-23T08:06:13.852Z,99952.94
2022-09-23T08:08:41.703Z,99950.75
2022-09-23T08:11:11.084Z,99945.09
2022-09-23T08:13:38.120Z,99931.25
2022-09-23T08:16:05.459Z,99925.91
2022-09-23T08:18:33.052Z,99926.66
2022-09-23T08:21:00.156Z,99930.78
2022-09-23T08:23:27.339Z,99927.19
2022-09-23T08:26:00.224Z,99933.22
2022-09-23T08:28:27.968Z,99927.50
2022-09-23T08:30:55.408Z,99925.88
2022-09-23T08:33:23.724Z,99930.34
2022-09-23T08:35:52.243Z,99929.97
2022-09-23T08:38:19.841Z,99926.84
2022-09-23T08:40:49.284Z,99919.50
2022-09-23T08:43:28.238Z,99927.63
2022-09-23T08:46:00.071Z,99925.41
2022-09-23T08:48:34.515Z,99925.97
2022-09-23T08:51:08.061Z,99933.88
2022-09-23T08:53:37.075Z,99925.94
2022-09-23T08:56:19.669Z,99928.34
2022-09-23T08:59:05.471Z,99931.16
2022-09-23T09:01:49.742Z,99925.94
2022-09-23T09:05:01.021Z,99929.56
2022-09-23T09:07:37.130Z,99930.13
2022-09-23T09:10:13.746Z,99939.44
2022-09-23T09:12:44.928Z,99925.06
2022-09-23T09:15:25.266Z,99933.78
2022-09-23T09:18:01.383Z,99929.81
2022-09-23T09:20:40.797Z,99923.91
2022-09-23T09:23:13.497Z,99924.53
2022-09-23T09:25:50.828Z,99918.22
2022-09-23T09:28:38.170Z,99919.28
2022-09-23T09:31:40.463Z,99911.03
2022-09-23T09:34:30.420Z,99909.72
2022-09-23T09:37:06.739Z,99911.84
2022-09-23T09:39:35.549Z,99897.25
2022-09-23T09:42:04.559Z,99898.31
2022-09-23T09:44:40.745Z,99899.78
2022-09-23T09:47:34.463Z,99890.66
2022-09-23T09:50:06.922Z,99891.91
2022-09-23T09:52:38.428Z,99881.03
2022-09-23T09:55:14.538Z,99884.78
2022-09-23T09:57:47.438Z,99880.88
2022-09-23T10:00:22.178Z,99882.06
2022-09-23T10:02:53.072Z,99879.78
2022-09-23T10:05:27.799Z,99881.53
2022-09-23T10:07:55.078Z,99875.78
2022-09-23T10:10:33.498Z,99872.22
2022-09-23T10:13:15.454Z,99867.94
2022-09-23T10:15:45.201Z,99862.63
2022-09-23T10:18:19.893Z,99874.66
2022-09-23T10:20:48.141Z,99866.38
2022-09-23T10:23:22.157Z,99861.13
2022-09-23T10:26:00.978Z,99860.53
2022-09-23T10:28:48.084Z,99862.97
2022-09-23T10:31:24.525Z,99865.47
2022-09-23T10:33:54.166Z,99863.50
2022-09-23T10:36:21.553Z,99857.69
2022-09-23T10:39:00.896Z,99855.31
2022-09-23T10:42:09.340Z,99849.81
2022-09-23T10:45:15.102Z,99841.59
2022-09-23T10:47:56.193Z,99846.19
2022-09-23T10:50:39.457Z,99839.00
2022-09-23T10:53:14.794Z,99841.31
2022-09-23T10:55:57.020Z,99839.81
2022-09-23T10:58:54.983Z,99846.25
2022-09-23T11:01:43.534Z,99836.75
2022-09-23T11:04:27.216Z,99837.22
2022-09-23T11:07:36.927Z,99832.06
2022-09-23T11:10:44.985Z,99838.47
2022-09-23T11:13:30.397Z,99826.03
2022-09-23T11:16:39.324Z,99817.28
2022-09-23T11:19:15.347Z,99819.00
2022-09-23T11:21:59.785Z,99822.66
2022-09-23T11:24:48.446Z,99813.16
2022-09-23T11:27:39.620Z,99816.81
2022-09-23T11:30:20.366Z,99804.84
2022-09-23T11:35:42.392Z,99792.91
2022-09-23T11:38:15.726Z,99796.13
2022-09-23T11:40:46.870Z,99796.88
2022-09-23T11:43:29.746Z,99788.78
2022-09-23T11:46:06.664Z,99781.78
2022-09-23T11:48:41.490Z,99769.34
2022-09-23T11:51:19.449Z,99776.56
2022-09-23T11:54:20.432Z,99778.34
2022-09-23T11:56:56.569Z,99775.09
2022-09-23T11:59:39.951Z,99766.34
2022-09-23T12:02:19.895Z,99758.41
2022-09-23T12:05:01.118Z,99762.28
2022-09-23T12:07:43.449Z,99758.22
2022-09-23T12:10:11.896Z,99764.22
2022-09-23T12:12:44.137Z,99758.00
2022-09-23T12:15:23.909Z,99755.31
2022-09-23T12:17:59.393Z,99753.75
2022-09-23T12:20:40.496Z,99751.41
2022-09-23T12:23:32.268Z,99742.50
2022-09-23T12:26:03.143Z,99746.38
2022-09-23T12:28:40.252Z,99747.69
2022-09-23T12:31:13.767Z,99744.53
2022-09-23T12:33:48.392Z,99742.63
2022-09-23T12:36:15.496Z,99744.66
2022-09-23T12:39:16.962Z,99742.38
2022-09-23T12:41:48.213Z,99743.72
2022-09-23T12:44:29.521Z,99743.81
2022-09-23T12:47:14.948Z,99732.38
2022-09-23T12:49:42.762Z,99742.72
2022-09-23T12:52:12.520Z,99730.81
2022-09-23T12:54:41.134Z,99738.03
2022-09-23T12:57:13.119Z,99729.56
2022-09-23T12:59:59.854Z,99725.56
2022-09-23T13:02:34.575Z,99723.63
2022-09-23T13:05:20.585Z,99728.56
2022-09-23T13:07:49.801Z,99723.56
2022-09-23T13:10:27.122Z,99718.66
2022-09-23T13:12:56.092Z,99712.72
2022-09-23T13:15:35.712Z,99710.69
2022-09-23T13:18:20.861Z,99711.28
2022-09-23T13:20:49.939Z,99713.53
2022-09-23T13:23:30.387Z,99709.91
2022-09-23T13:26:10.854Z,99707.03
2022-09-23T13:28:56.011Z,99702.13
2022-09-23T13:31:23.087Z,99703.31
2022-09-23T13:34:01.870Z,99699.91
2022-09-23T13:36:28.944Z,99684.38
2022-09-23T13:39:14.838Z,99685.69
2022-09-23T13:41:45.218Z,99676.78
2022-09-23T13:44:17.636Z,99669.47
2022-09-23T13:47:00.429Z,99669.94
2022-09-23T13:49:33.112Z,99673.34
2022-09-23T13:52:00.362Z,99672.94
2022-09-23T13:54:29.902Z,99672.94
2022-09-23T13:56:57.248Z,99665.47
2022-09-23T13:59:30.314Z,99664.66
2022-09-23T14:02:05.858Z,99665.63
2022-09-23T14:04:33.030Z,99676.00
2022-09-23T14:07:01.408Z,99661.91
2022-09-23T14:09:29.759Z,99660.81
2022-09-23T14:11:59.389Z,99657.16
2022-09-23T14:14:28.965Z,99655.47
2022-09-23T14:16:57.609Z,99649.94
2022-09-23T14:19:26.084Z,99643.41
2022-09-23T14:21:54.513Z,99645.13
2022-09-23T14:24:33.586Z,99637.13
2022-09-23T14:27:17.700Z,99625.53
2022-09-23T14:29:47.650Z,99628.94
2022-09-23T14:32:25.828Z,99627.75
2022-09-23T14:35:02.008Z,99627.13
2022-09-23T14:37:37.946Z,99622.56
2022-09-23T14:40:12.288Z,99623.16
2022-09-23T14:42:49.258Z,99615.56
2022-09-23T14:45:20.372Z,99622.53
2022-09-23T14:47:53.584Z,99617.41
2022-09-23T14:50:24.184Z,99609.34
2022-09-23T14:52:51.539Z,99603.94
2022-09-23T14:55:18.670Z,99602.06
2022-09-23T14:57:45.950Z,99599.91
2022-09-23T15:00:13.375Z,99599.28
2022-09-23T15:02:44.583Z,99600.50
2022-09-23T15:05:20.100Z,99591.72
2022-09-23T15:07:50.416Z,99590.19
2022-09-23T15:10:26.153Z,99583.06
2022-09-23T15:12:56.579Z,99578.81
2022-09-23T15:15:26.053Z,99580.91
2022-09-23T15:17:53.505Z,99577.44
2022-09-23T15:20:26.737Z,99574.75
2022-09-23T15:22:55.696Z,99576.56
2022-09-23T15:25:27.106Z,99579.00
2022-09-23T15:27:58.278Z,99574.00
2022-09-23T15:30:26.062Z,99566.94
2022-09-23T15:32:53.148Z,99571.59
2022-09-23T15:35:22.835Z,99567.75
2022-09-23T15:37:50.633Z,99573.53
2022-09-23T15:40:44.089Z,99569.53
2022-09-23T15:43:21.767Z,99570.66
2022-09-23T15:45:54.263Z,99571.53
2022-09-23T15:48:36.786Z,99561.41
2022-09-23T15:51:06.042Z,99561.13
2022-09-23T15:53:33.066Z,99567.09
2022-09-23T15:56:00.048Z,99564.13
2022-09-23T15:58:27.070Z,99561.63
2022-09-23T16:00:56.842Z,99560.84
2022-09-23T16:03:25.779Z,99562.09
2022-09-23T16:05:52.775Z,99563.00
2022-09-23T16:08:19.734Z,99559.25
2022-09-23T16:10:46.713Z,99557.13
2022-09-23T16:13:14.504Z,99568.41
2022-09-23T16:15:42.243Z,99557.25
2022-09-23T16:18:11.323Z,99567.22
2022-09-23T16:20:41.706Z,99565.31
2022-09-23T16:23:18.488Z,99559.78
2022-09-23T16:25:45.451Z,99560.44
2022-09-23T16:28:12.413Z,99557.94
2022-09-23T16:30:39.352Z,99560.25
2022-09-23T16:33:06.305Z,99552.66
2022-09-23T16:35:33.667Z,99561.75
2022-09-23T16:38:00.654Z,99557.94
2022-09-23T16:40:27.681Z,99557.31
2022-09-23T16:42:54.665Z,99550.38
2022-09-23T16:45:22.394Z,99550.97
2022-09-23T16:47:51.500Z,99554.56
2022-09-23T16:50:21.578Z,99557.50
2022-09-23T16:52:48.690Z,99554.13
2022-09-23T16:55:15.670Z,99551.16
2022-09-23T16:57:43.223Z,99555.97
2022-09-23T17:00:14.139Z,99564.78
2022-09-23T17:02:41.223Z,99567.69
2022-09-23T17:05:08.673Z,99563.41
2022-09-23T17:07:35.666Z,99568.25
2022-09-23T17:10:02.845Z,99562.28
2022-09-23T17:12:32.101Z,99558.88
2022-09-23T17:14:59.055Z,99555.25
2022-09-23T17:17:26.033Z,99552.03
2022-09-23T17:19:53.033Z,99551.19
2022-09-23T17:22:20.174Z,99547.59
2022-09-23T17:24:47.261Z,99547.13
2022-09-23T17:27:14.267Z,99546.69
2022-09-23T17:29:41.204Z,99545.69
2022-09-23T17:32:08.185Z,99551.13
2022-09-23T17:34:35.153Z,99556.13
2022-09-23T17:37:02.133Z,99553.53
2022-09-23T17:39:29.091Z,99552.19
2022-09-23T17:41:56.067Z,99562.41
2022-09-23T17:44:23.031Z,99560.66
2022-09-23T17:46:50.034Z,99572.25
2022-09-23T17:49:17.133Z,99568.66
2022-09-23T17:51:44.245Z,99569.00
2022-09-23T17:54:11.309Z,99568.53
2022-09-23T17:56:38.297Z,99571.25
2022-09-23T17:59:05.559Z,99575.63
2022-09-23T18:01:32.666Z,99574.25
2022-09-23T18:04:01.457Z,99572.56
2022-09-23T18:06:30.780Z,99573.78
2022-09-23T18:08:59.353Z,99581.53
2022-09-23T18:11:28.791Z,99573.91
2022-09-23T18:14:00.961Z,99577.22
2022-09-23T18:16:31.272Z,99574.63
2022-09-23T18:19:00.516Z,99582.16
2022-09-23T18:21:30.987Z,99573.31
2022-09-23T18:24:21.425Z,99573.56
2022-09-23T18:26:47.556Z,99565.00
2022-09-23T18:29:14.525Z,99568.56
2022-09-23T18:31:42.550Z,99565.00
2022-09-23T18:34:15.750Z,99572.34
2022-09-23T18:36:43.154Z,99569.78
2022-09-23T18:39:10.653Z,99573.56
2022-09-23T18:41:38.132Z,99576.13
2022-09-23T18:44:05.189Z,99574.41
2022-09-23T18:46:32.168Z,99578.56
2022-09-23T18:49:01.947Z,99566.44
2022-09-23T18:51:34.800Z,99574.13
2022-09-23T18:54:03.339Z,99569.72
2022-09-23T18:56:39.788Z,99572.56
2022-09-23T18:59:16.700Z,99564.03
2022-09-23T19:01:44.679Z,99567.31
2022-09-23T19:04:12.765Z,99566.19
2022-09-23T19:06:39.839Z,99563.84
2022-09-23T19:09:07.714Z,99562.06
2022-09-23T19:11:35.488Z,99564.22
2022-09-23T19:14:05.123Z,99563.78
2022-09-23T19:16:32.821Z,99569.44
2022-09-23T19:19:00.126Z,99565.84
2022-09-23T19:21:28.151Z,99570.44
2022-09-23T19:24:00.992Z,99576.75
2022-09-23T19:26:30.503Z,99571.09
2022-09-23T19:28:58.848Z,99573.84
2022-09-23T19:31:31.733Z,99576.94
2022-09-23T19:34:04.117Z,99583.16
2022-09-23T19:36:35.934Z,99577.22
2022-09-23T19:39:06.315Z,99577.78
2022-09-23T19:41:34.503Z,99578.34
2022-09-23T19:44:03.511Z,99580.59
2022-09-23T19:46:31.197Z,99589.16
2022-09-23T19:48:58.465Z,99587.09
2022-09-23T19:51:26.056Z,99578.91
2022-09-23T19:53:53.381Z,99582.00
2022-09-23T19:56:20.637Z,99592.25
2022-09-23T19:58:51.249Z,99584.28
2022-09-23T20:01:18.973Z,99584.44
2022-09-23T20:03:46.830Z,99575.38
2022-09-23T20:06:14.914Z,99578.09
2022-09-23T20:08:42.387Z,99580.38
2022-09-23T20:11:14.922Z,99577.31
2022-09-23T20:13:44.026Z,99576.50
2022-09-23T20:16:14.704Z,99575.81
2022-09-23T20:18:43.465Z,99589.66
2022-09-23T20:21:12.909Z,99591.25
2022-09-23T20:23:40.413Z,99590.03
2022-09-23T20:26:07.454Z,99576.38
2022-09-23T20:28:34.434Z,99569.03
2022-09-23T20:31:01.440Z,99572.81
2022-09-23T20:33:28.477Z,99573.38
2022-09-23T20:35:55.541Z,99568.94
2022-09-23T20:38:22.602Z,99561.31
2022-09-23T20:40:57.270Z,99576.19
2022-09-23T20:43:24.799Z,99574.84
2022-09-23T20:45:53.996Z,99565.97
2022-09-23T20:48:22.632Z,99560.53
2022-09-23T20:50:50.395Z,99554.44
2022-09-23T20:53:18.769Z,99561.47
2022-09-23T20:55:53.284Z,99566.81
2022-09-23T20:58:25.748Z,99559.16
2022-09-23T21:00:53.896Z,99565.34
2022-09-23T21:03:20.936Z,99558.06
2022-09-23T21:05:47.884Z,99564.25
2022-09-23T21:08:16.074Z,99566.19
2022-09-23T21:10:43.053Z,99563.16
2022-09-23T21:13:10.168Z,99574.97
2022-09-23T21:15:37.136Z,99573.78
2022-09-23T21:18:04.338Z,99571.59
2022-09-23T21:20:31.304Z,99568.75
2022-09-23T21:22:58.316Z,99579.88
2022-09-23T21:25:28.435Z,99572.06
2022-09-23T21:27:55.903Z,99572.22
2022-09-23T21:30:22.871Z,99572.56
2022-09-23T21:32:49.872Z,99572.25
2022-09-23T21:35:16.835Z,99569.88
2022-09-23T21:37:43.793Z,99573.63
2022-09-23T21:40:11.028Z,99568.19
2022-09-23T21:42:38.093Z,99573.63
2022-09-23T21:45:05.537Z,99582.50
2022-09-23T21:47:32.501Z,99595.25
2022-09-23T21:49:59.455Z,99587.94
2022-09-23T21:52:26.423Z,99588.94
2022-09-23T21:54:53.399Z,99586.06
2022-09-23T21:57:20.364Z,99584.19
2022-09-23T21:59:47.293Z,99578.91
2022-09-23T22:02:14.344Z,99574.00
2022-09-23T22:04:41.400Z,99571.47
2022-09-23T22:07:08.401Z,99565.16
2022-09-23T22:09:35.382Z,99561.09
2022-09-23T22:12:02.349Z,99566.72
2022-09-23T22:14:29.420Z,99565.53
2022-09-23T22:16:59.700Z,99571.69
2022-09-23T22:19:29.434Z,99572.22
2022-09-23T22:21:56.404Z,99576.13
2022-09-23T22:24:23.350Z,99577.84
2022-09-23T22:26:50.392Z,99573.78
2022-09-23T22:29:17.445Z,99565.81
2022-09-23T22:31:44.623Z,99568.88
2022-09-23T22:34:31.242Z,99574.97
2022-09-23T22:37:01.032Z,99576.00
2022-09-23T22:39:29.516Z,99563.91
2022-09-23T22:41:56.684Z,99555.28
2022-09-23T22:44:24.405Z,99563.59
2022-09-23T22:46:52.101Z,99565.13
2022-09-23T22:49:19.110Z,99575.34
2022-09-23T22:51:46.205Z,99580.09
2022-09-23T22:54:13.222Z,99573.81
2022-09-23T22:56:40.186Z,99578.91
2022-09-23T22:59:09.893Z,99580.78
2022-09-23T23:01:37.001Z,99578.41
2022-09-23T23:04:04.353Z,99583.00
2022-09-23T23:06:33.175Z,99585.69
2022-09-23T23:09:00.454Z,99588.09
2022-09-23T23:11:27.879Z,99582.00
2022-09-23T23:13:54.852Z,99575.53
2022-09-23T23:16:21.859Z,99586.56
2022-09-23T23:18:48.871Z,99585.91
2022-09-23T23:21:19.154Z,99586.56
2022-09-23T23:23:51.681Z,99586.56
2022-09-23T23:26:23.970Z,99589.28
2022-09-23T23:28:52.785Z,99580.09
2022-09-23T23:31:21.321Z,99581.81
2022-09-23T23:33:48.822Z,99588.25
2022-09-23T23:36:18.494Z,99593.53
2022-09-23T23:38:47.525Z,99582.81
2022-09-23T23:41:17.238Z,99575.03
2022-09-23T23:43:46.258Z,99574.16
2022-09-23T23:46:14.783Z,99564.31
2022-09-23T23:48:42.489Z,99562.28
2022-09-23T23:51:10.939Z,99556.84
2022-09-23T23:53:39.710Z,99561.44
2022-09-23T23:56:12.164Z,99564.81
2022-09-23T23:58:39.975Z,99568.06
